Time;durP1;ratioP1;P1;durP2;ratioP2;P2;SDS_P1;SDS_P2;PMS_P1;PMS_P2;Temp;Humidity;BMP_temperature;BMP_pressure;BME280_temperature;BME280_humidity;BME280_pressure;Samples;Min_cycle;Max_cycle;Signal;HPM_P1;HPM_P2
2023/09/02 00:00:13;;;;;;;6.30;1.27;;;17.80;99.90;;;;;;4984104;28;20473;-67
2023/09/02 00:02:40;;;;;;;1.60;0.80;;;17.80;99.90;;;;;;4983750;28;20477;-67
2023/09/02 00:05:07;;;;;;;2.10;1.00;;;17.70;99.90;;;;;;4989619;28;25075;-67
2023/09/02 00:07:35;;;;;;;1.63;0.80;;;17.70;99.90;;;;;;4990829;28;20488;-67
2023/09/02 00:10:02;;;;;;;6.83;1.30;;;17.70;99.90;;;;;;4992674;28;20587;-67
2023/09/02 00:12:29;;;;;;;4.07;1.33;;;17.70;99.90;;;;;;4990822;28;21023;-67
2023/09/02 00:14:56;;;;;;;2.83;1.03;;;17.70;99.90;;;;;;4994668;28;20568;-67
2023/09/02 00:17:23;;;;;;;3.80;1.07;;;17.70;99.90;;;;;;4988004;28;20889;-67
2023/09/02 00:19:50;;;;;;;2.77;0.97;;;17.70;99.90;;;;;;4990408;28;20489;-68
2023/09/02 00:22:17;;;;;;;1.60;0.80;;;17.60;99.90;;;;;;4991338;28;20468;-67
2023/09/02 00:24:45;;;;;;;1.67;0.70;;;17.60;99.90;;;;;;4990836;28;20480;-67
2023/09/02 00:27:12;;;;;;;4.57;1.07;;;17.60;99.90;;;;;;4989101;28;21201;-67
2023/09/02 00:29:38;;;;;;;2.10;1.37;;;17.60;99.90;;;;;;4990947;28;20482;-67
2023/09/02 00:32:06;;;;;;;4.00;1.60;;;17.60;99.90;;;;;;4991720;28;20883;-67
2023/09/02 00:34:33;;;;;;;3.47;1.80;;;17.60;99.90;;;;;;4991191;28;20948;-67
2023/09/02 00:36:59;;;;;;;2.20;1.30;;;17.60;99.90;;;;;;4991311;28;20838;-67
2023/09/02 00:39:27;;;;;;;1.90;1.00;;;17.60;99.90;;;;;;4990711;28;20507;-67
2023/09/02 00:41:57;;;;;;;7.57;1.37;;;17.50;99.90;;;;;;4993860;28;20468;-67
2023/09/02 00:44:25;;;;;;;1.90;0.90;;;17.50;99.90;;;;;;4991696;28;20479;-67
2023/09/02 00:46:52;;;;;;;3.77;1.20;;;17.40;99.90;;;;;;4995297;28;20806;-67
2023/09/02 00:49:19;;;;;;;4.30;2.00;;;17.30;99.90;;;;;;4994344;28;20488;-67
2023/09/02 00:51:46;;;;;;;2.67;1.47;;;17.20;99.90;;;;;;4994252;28;20902;-67
2023/09/02 00:54:13;;;;;;;1.90;1.10;;;17.20;99.90;;;;;;4994463;28;21026;-67
2023/09/02 00:56:41;;;;;;;3.17;1.30;;;17.30;99.90;;;;;;4991569;28;21037;-67
2023/09/02 00:59:10;;;;;;;10.33;1.77;;;17.30;99.90;;;;;;4989288;28;21018;-68
2023/09/02 01:01:37;;;;;;;4.03;1.73;;;17.30;99.90;;;;;;4985250;28;20488;-68
2023/09/02 01:04:04;;;;;;;2.53;1.90;;;17.20;99.90;;;;;;4981778;28;20821;-68
2023/09/02 01:06:31;;;;;;;2.10;1.13;;;17.00;99.90;;;;;;4980963;28;20765;-68
2023/09/02 01:08:58;;;;;;;4.83;2.00;;;16.90;99.90;;;;;;5007046;28;20483;-68
2023/09/02 01:11:25;;;;;;;3.90;1.50;;;17.00;99.90;;;;;;4995201;28;21187;-68
2023/09/02 01:13:52;;;;;;;3.30;1.33;;;16.90;99.90;;;;;;4987544;28;20567;-67
2023/09/02 01:16:20;;;;;;;2.40;1.50;;;17.00;99.90;;;;;;4985032;28;20474;-68
2023/09/02 01:18:47;;;;;;;3.27;2.10;;;17.00;99.90;;;;;;4989704;28;20543;-67
2023/09/02 01:21:50;;;;;;;3.23;1.60;;;17.00;99.90;;;;;;4981874;28;20935;-67
2023/09/02 01:24:38;;;;;;;4.27;2.10;;;17.00;99.90;;;;;;4990386;28;20477;-68
2023/09/02 01:27:23;;;;;;;4.17;1.97;;;17.00;99.90;;;;;;4986098;28;20690;-67
2023/09/02 01:29:57;;;;;;;5.07;1.20;;;17.10;99.90;;;;;;4988353;28;20982;-67
2023/09/02 01:32:29;;;;;;;2.70;1.40;;;17.10;99.90;;;;;;4981023;28;20653;-68
2023/09/02 01:34:58;;;;;;;9.97;1.90;;;16.90;99.90;;;;;;4993711;28;20851;-68
2023/09/02 01:37:26;;;;;;;2.20;1.33;;;16.80;99.90;;;;;;4990433;28;20808;-68
2023/09/02 01:39:55;;;;;;;2.53;1.27;;;16.80;99.90;;;;;;4990394;28;20472;-67
2023/09/02 01:42:24;;;;;;;2.70;1.73;;;16.70;99.90;;;;;;4984228;28;20488;-68
2023/09/02 01:44:52;;;;;;;3.00;1.37;;;16.70;99.90;;;;;;4990671;28;20474;-68
2023/09/02 01:47:19;;;;;;;1.70;1.00;;;16.80;99.90;;;;;;4992635;28;20665;-68
2023/09/02 01:49:47;;;;;;;1.90;1.07;;;16.80;99.90;;;;;;4989689;28;20529;-67
2023/09/02 01:52:16;;;;;;;3.23;1.30;;;16.90;99.90;;;;;;4987437;28;20824;-67
2023/09/02 01:54:43;;;;;;;3.70;1.80;;;16.90;99.90;;;;;;4987851;28;20489;-67
2023/09/02 01:57:11;;;;;;;10.23;1.37;;;16.90;99.90;;;;;;4990358;28;20490;-67
2023/09/02 01:59:39;;;;;;;2.10;1.20;;;16.80;99.90;;;;;;4995631;28;20473;-67
2023/09/02 02:02:06;;;;;;;2.10;1.30;;;16.80;99.90;;;;;;4994236;28;20474;-67
2023/09/02 02:04:35;;;;;;;2.03;1.10;;;16.80;99.90;;;;;;4985246;28;21214;-67
2023/09/02 02:07:07;;;;;;;3.30;1.10;;;16.90;99.90;;;;;;4977923;28;20497;-67
2023/09/02 02:09:36;;;;;;;5.63;1.50;;;16.90;99.90;;;;;;4986179;28;20475;-67
2023/09/02 02:12:04;;;;;;;1.97;1.30;;;16.90;99.90;;;;;;4989316;28;20491;-68
2023/09/02 02:14:35;;;;;;;3.33;1.30;;;17.00;99.90;;;;;;4984643;28;20477;-68
2023/09/02 02:17:04;;;;;;;2.20;1.10;;;17.00;99.90;;;;;;4993313;28;20493;-67
2023/09/02 02:19:31;;;;;;;2.00;1.23;;;17.00;99.90;;;;;;4996127;28;20999;-67
2023/09/02 02:21:58;;;;;;;1.90;0.90;;;17.00;99.90;;;;;;4986979;28;20489;-68
2023/09/02 02:24:26;;;;;;;1.60;0.90;;;16.90;99.90;;;;;;4986626;28;20496;-67
2023/09/02 02:26:54;;;;;;;1.90;1.23;;;16.70;99.90;;;;;;5006845;28;20520;-67
2023/09/02 02:29:21;;;;;;;1.90;1.07;;;16.60;99.90;;;;;;4992398;28;21223;-68
2023/09/02 02:31:48;;;;;;;1.90;1.20;;;16.60;99.90;;;;;;4995176;28;20679;-68
2023/09/02 02:34:17;;;;;;;2.47;1.07;;;16.60;99.90;;;;;;4988413;28;20475;-68
2023/09/02 02:36:44;;;;;;;2.10;1.10;;;16.60;99.90;;;;;;4988222;28;20493;-68
2023/09/02 02:39:11;;;;;;;1.93;1.03;;;16.70;99.90;;;;;;4982115;28;20943;-68
2023/09/02 02:41:38;;;;;;;1.80;1.00;;;16.70;99.90;;;;;;4985563;28;20492;-68
2023/09/02 02:44:06;;;;;;;2.03;1.10;;;16.80;99.90;;;;;;4985110;28;20487;-68
2023/09/02 02:46:33;;;;;;;2.27;1.23;;;16.80;99.90;;;;;;4985671;28;20499;-68
2023/09/02 02:48:59;;;;;;;1.67;0.80;;;16.80;99.90;;;;;;4978773;28;20490;-68
2023/09/02 02:51:27;;;;;;;1.90;0.93;;;16.80;99.90;;;;;;4989539;28;20869;-68
2023/09/02 02:53:54;;;;;;;1.90;1.23;;;16.80;99.90;;;;;;4982549;28;20885;-68
2023/09/02 02:56:21;;;;;;;2.23;1.27;;;16.70;99.90;;;;;;4986113;28;20477;-68
2023/09/02 02:58:48;;;;;;;1.70;0.97;;;16.70;99.90;;;;;;4985190;28;21036;-68
2023/09/02 03:01:15;;;;;;;1.70;0.97;;;16.70;99.90;;;;;;4992264;28;20477;-67
2023/09/02 03:03:42;;;;;;;2.67;1.17;;;16.70;99.90;;;;;;5000789;28;20606;-67
2023/09/02 03:06:09;;;;;;;1.70;1.00;;;16.60;99.90;;;;;;4982173;28;20486;-67
2023/09/02 03:08:37;;;;;;;2.10;1.10;;;16.60;99.90;;;;;;4984044;28;20477;-67
2023/09/02 03:11:06;;;;;;;2.00;1.13;;;16.60;99.90;;;;;;4983450;28;20478;-67
2023/09/02 03:13:34;;;;;;;2.50;1.20;;;16.60;99.90;;;;;;4979400;28;20498;-67
2023/09/02 03:16:02;;;;;;;2.37;1.27;;;16.70;99.90;;;;;;4985073;28;20989;-67
2023/09/02 03:18:29;;;;;;;3.17;1.13;;;16.70;99.90;;;;;;4977381;28;20478;-67
2023/09/02 03:21:02;;;;;;;2.00;1.00;;;16.70;99.90;;;;;;4996118;28;20478;-68
2023/09/02 03:23:28;;;;;;;3.30;0.90;;;16.70;99.90;;;;;;4975754;28;20470;-68
2023/09/02 03:25:57;;;;;;;2.00;0.80;;;16.70;99.90;;;;;;4994850;28;20946;-68
2023/09/02 03:28:23;;;;;;;2.00;1.27;;;16.70;99.90;;;;;;4989466;28;20548;-68
2023/09/02 03:30:50;;;;;;;2.73;1.30;;;16.70;99.90;;;;;;4993595;28;20903;-68
2023/09/02 03:33:17;;;;;;;2.00;1.17;;;16.70;99.90;;;;;;4977037;28;20486;-68
2023/09/02 03:35:44;;;;;;;4.10;1.40;;;16.70;99.90;;;;;;4983510;28;20788;-68
2023/09/02 03:38:11;;;;;;;1.97;1.07;;;16.70;99.90;;;;;;4982852;28;20558;-68
2023/09/02 03:40:38;;;;;;;1.97;1.03;;;16.70;99.90;;;;;;4994454;28;20476;-69
2023/09/02 03:43:06;;;;;;;2.00;1.10;;;16.70;99.90;;;;;;4988697;28;22184;-68
2023/09/02 03:45:33;;;;;;;2.00;1.13;;;16.70;99.90;;;;;;4992809;28;20543;-68
2023/09/02 03:48:00;;;;;;;4.17;1.07;;;16.70;99.90;;;;;;4987936;28;20474;-68
2023/09/02 03:50:27;;;;;;;2.03;0.80;;;16.70;99.90;;;;;;4992116;28;20559;-68
2023/09/02 03:52:54;;;;;;;2.20;1.03;;;16.70;99.90;;;;;;4992149;28;20484;-68
2023/09/02 03:55:21;;;;;;;1.80;1.00;;;16.70;99.90;;;;;;4983845;28;20557;-68
2023/09/02 03:57:48;;;;;;;1.80;1.00;;;16.70;99.90;;;;;;4990770;28;20489;-68
2023/09/02 04:00:17;;;;;;;2.03;1.20;;;16.70;99.90;;;;;;4984078;28;20505;-68
2023/09/02 04:02:44;;;;;;;1.70;0.80;;;16.70;99.90;;;;;;4989622;28;20851;-68
2023/09/02 04:05:11;;;;;;;2.10;1.00;;;16.70;99.90;;;;;;4986175;28;20488;-69
2023/09/02 04:07:38;;;;;;;2.00;1.03;;;16.70;99.90;;;;;;4982798;28;20489;-69
2023/09/02 04:10:06;;;;;;;2.30;0.93;;;16.70;99.90;;;;;;4989483;28;20488;-68
2023/09/02 04:12:35;;;;;;;1.80;1.00;;;16.70;99.90;;;;;;4989203;28;20490;-68
2023/09/02 04:15:03;;;;;;;4.43;1.30;;;16.70;99.90;;;;;;4986606;28;20488;-68
2023/09/02 04:17:31;;;;;;;1.93;1.17;;;16.80;99.90;;;;;;4977821;28;20979;-68
2023/09/02 04:20:00;;;;;;;4.00;0.90;;;16.80;99.90;;;;;;4991391;28;21140;-68
2023/09/02 04:22:29;;;;;;;2.07;0.90;;;16.80;99.90;;;;;;4976366;28;20552;-68
2023/09/02 04:24:56;;;;;;;2.23;1.10;;;16.80;99.90;;;;;;5003651;28;20481;-68
2023/09/02 04:27:23;;;;;;;1.60;0.80;;;16.80;99.90;;;;;;4993916;28;20508;-68
2023/09/02 04:29:52;;;;;;;1.80;0.93;;;16.80;99.90;;;;;;4993730;28;20705;-68
2023/09/02 04:32:19;;;;;;;1.60;0.90;;;16.80;99.90;;;;;;4988736;28;20492;-68
2023/09/02 04:34:47;;;;;;;1.87;1.00;;;16.80;99.90;;;;;;4987014;28;21000;-68
2023/09/02 04:37:14;;;;;;;2.23;0.90;;;16.80;99.90;;;;;;4990824;28;20482;-68
2023/09/02 04:39:41;;;;;;;1.80;1.07;;;16.80;99.90;;;;;;4998168;28;20488;-68
2023/09/02 04:42:09;;;;;;;1.90;0.90;;;16.80;99.90;;;;;;5002484;28;20486;-69
2023/09/02 04:44:36;;;;;;;2.23;1.33;;;16.80;99.90;;;;;;4984777;28;20908;-68
2023/09/02 04:47:03;;;;;;;1.80;0.80;;;16.80;99.90;;;;;;4993339;28;20512;-68
2023/09/02 04:49:30;;;;;;;1.70;0.83;;;16.80;99.90;;;;;;4987273;28;20845;-68
2023/09/02 04:51:58;;;;;;;3.33;0.97;;;16.80;99.90;;;;;;4991668;28;20574;-69
2023/09/02 04:54:26;;;;;;;2.80;1.20;;;16.80;99.90;;;;;;4995612;28;20439;-68
2023/09/02 04:56:53;;;;;;;3.50;1.00;;;16.80;99.90;;;;;;4992077;28;20497;-68
2023/09/02 04:59:19;;;;;;;2.10;1.03;;;16.80;99.90;;;;;;4990065;28;20481;-68
2023/09/02 05:01:46;;;;;;;2.77;1.43;;;16.80;99.90;;;;;;4990992;28;20492;-69
2023/09/02 05:04:13;;;;;;;3.17;1.47;;;16.80;99.90;;;;;;4993836;28;20489;-68
2023/09/02 05:06:40;;;;;;;3.83;1.53;;;16.80;99.90;;;;;;4986452;28;20486;-68
2023/09/02 05:09:09;;;;;;;1.80;1.00;;;16.80;99.90;;;;;;4990539;28;20506;-68
2023/09/02 05:11:35;;;;;;;1.67;0.87;;;16.80;99.90;;;;;;4993596;28;21032;-68
2023/09/02 05:14:02;;;;;;;2.00;1.00;;;16.80;99.90;;;;;;4988433;28;20476;-68
2023/09/02 05:16:29;;;;;;;7.23;1.47;;;16.70;99.90;;;;;;4991146;28;20742;-68
2023/09/02 05:18:56;;;;;;;1.67;0.90;;;16.70;99.90;;;;;;4984307;28;21152;-68
2023/09/02 05:21:23;;;;;;;3.40;0.90;;;16.50;99.90;;;;;;4985542;28;20478;-69
2023/09/02 05:23:50;;;;;;;10.63;1.00;;;16.40;99.90;;;;;;4991523;28;20487;-68
2023/09/02 05:26:18;;;;;;;1.73;1.00;;;16.40;99.90;;;;;;4994176;28;20500;-68
2023/09/02 05:28:45;;;;;;;1.70;0.80;;;16.30;99.90;;;;;;4993417;28;20493;-68
2023/09/02 05:31:12;;;;;;;1.70;0.80;;;16.40;99.90;;;;;;5003230;28;20480;-68
2023/09/02 05:33:38;;;;;;;1.60;0.70;;;16.30;99.90;;;;;;4995018;28;20492;-68
2023/09/02 05:36:06;;;;;;;2.10;1.40;;;16.40;99.90;;;;;;4994684;28;20751;-68
2023/09/02 05:38:32;;;;;;;1.83;1.10;;;16.20;99.90;;;;;;4986337;28;20576;-68
2023/09/02 05:40:59;;;;;;;2.10;0.80;;;16.10;99.90;;;;;;4987788;28;20965;-68
2023/09/02 05:43:28;;;;;;;1.70;0.70;;;16.10;99.90;;;;;;4986575;28;21083;-69
2023/09/02 05:45:58;;;;;;;1.90;0.90;;;16.20;99.90;;;;;;4988636;28;20493;-68
2023/09/02 05:48:25;;;;;;;1.80;1.07;;;16.30;99.90;;;;;;4983989;28;20493;-68
2023/09/02 05:50:55;;;;;;;1.80;1.00;;;16.40;99.90;;;;;;4991403;28;20477;-68
2023/09/02 05:53:22;;;;;;;1.87;1.10;;;16.50;99.90;;;;;;4993507;28;20496;-69
2023/09/02 05:55:54;;;;;;;4.07;1.00;;;16.60;99.90;;;;;;4984886;28;20499;-69
2023/09/02 05:58:21;;;;;;;1.80;1.10;;;16.70;99.90;;;;;;4984565;28;20505;-69
2023/09/02 06:00:49;;;;;;;1.93;1.13;;;16.80;99.90;;;;;;4993443;28;20476;-69
2023/09/02 06:03:16;;;;;;;5.10;1.10;;;16.90;99.90;;;;;;4994143;28;20471;-69
2023/09/02 06:05:43;;;;;;;2.07;1.10;;;17.00;99.90;;;;;;4983213;28;20483;-68
2023/09/02 06:08:09;;;;;;;2.03;1.20;;;17.10;99.90;;;;;;4987992;28;20469;-68
2023/09/02 06:10:36;;;;;;;2.00;1.03;;;17.20;99.90;;;;;;4990268;28;20484;-69
2023/09/02 06:13:03;;;;;;;2.10;1.30;;;17.30;99.90;;;;;;4998240;28;20921;-69
2023/09/02 06:15:30;;;;;;;3.27;1.53;;;17.40;99.90;;;;;;4992178;28;20473;-68
2023/09/02 06:18:00;;;;;;;2.20;1.53;;;17.50;99.90;;;;;;4988301;28;20492;-69
2023/09/02 06:20:28;;;;;;;2.20;1.27;;;17.50;99.90;;;;;;4987726;28;21056;-69
2023/09/02 06:22:55;;;;;;;2.63;1.57;;;17.60;99.90;;;;;;4986152;28;20566;-69
2023/09/02 06:25:22;;;;;;;2.17;1.10;;;17.70;99.90;;;;;;4994323;28;20481;-69
2023/09/02 06:27:49;;;;;;;2.17;1.03;;;17.80;99.90;;;;;;4978840;28;20880;-69
2023/09/02 06:30:16;;;;;;;1.70;1.00;;;17.90;99.90;;;;;;4988315;28;20497;-68
2023/09/02 06:32:43;;;;;;;1.80;1.10;;;18.00;99.90;;;;;;4985150;28;20485;-68
2023/09/02 06:35:15;;;;;;;2.20;1.00;;;18.20;99.90;;;;;;4991875;28;20942;-67
2023/09/02 06:37:41;;;;;;;2.37;1.27;;;18.30;99.90;;;;;;4983006;28;20914;-68
2023/09/02 06:40:09;;;;;;;2.10;1.13;;;18.50;99.90;;;;;;4990119;28;20480;-69
2023/09/02 06:42:36;;;;;;;2.03;1.40;;;18.70;99.90;;;;;;4986023;28;20488;-69
2023/09/02 06:45:03;;;;;;;2.47;2.03;;;19.20;99.90;;;;;;4994543;28;20589;-68
2023/09/02 06:47:30;;;;;;;3.13;2.37;;;19.90;99.90;;;;;;4983693;28;20904;-69
2023/09/02 06:49:57;;;;;;;2.10;1.80;;;21.00;99.90;;;;;;4992773;28;20488;-69
2023/09/02 06:52:27;;;;;;;2.20;1.40;;;21.70;99.90;;;;;;4995623;28;20502;-68
2023/09/02 06:54:53;;;;;;;2.27;1.50;;;22.20;99.90;;;;;;4999951;28;20510;-68
2023/09/02 06:57:20;;;;;;;2.83;1.80;;;22.80;99.90;;;;;;4984830;28;21671;-67
2023/09/02 06:59:47;;;;;;;2.30;1.37;;;23.30;99.90;;;;;;4993548;28;20486;-68
2023/09/02 07:02:14;;;;;;;4.33;1.20;;;23.80;99.90;;;;;;4988876;28;20549;-68
2023/09/02 07:04:41;;;;;;;2.50;1.27;;;24.10;99.90;;;;;;4983724;28;20493;-68
2023/09/02 07:07:08;;;;;;;1.90;1.30;;;24.40;99.90;;;;;;4985313;28;20487;-68
2023/09/02 07:09:36;;;;;;;3.23;1.60;;;24.60;99.90;;;;;;4985621;28;20464;-68
2023/09/02 07:12:03;;;;;;;1.73;1.00;;;24.80;99.90;;;;;;4995828;28;20493;-68
2023/09/02 07:14:30;;;;;;;2.23;1.27;;;24.90;99.90;;;;;;4986988;28;21009;-68
2023/09/02 07:16:57;;;;;;;2.20;1.17;;;24.90;99.90;;;;;;4983720;28;20491;-68
2023/09/02 07:19:24;;;;;;;2.50;1.50;;;25.00;99.90;;;;;;4991551;28;21327;-68
2023/09/02 07:21:51;;;;;;;4.00;1.90;;;25.00;99.90;;;;;;4986578;28;20464;-68
2023/09/02 07:24:18;;;;;;;3.17;1.30;;;25.10;99.90;;;;;;4977916;28;20471;-68
2023/09/02 07:26:46;;;;;;;2.00;1.40;;;25.00;99.90;;;;;;4984477;28;20572;-68
2023/09/02 07:29:13;;;;;;;1.90;1.17;;;24.90;99.90;;;;;;4988172;28;20819;-68
2023/09/02 07:31:40;;;;;;;2.83;0.97;;;24.90;99.90;;;;;;4980153;28;20480;-68
2023/09/02 07:34:07;;;;;;;1.80;1.20;;;24.90;99.90;;;;;;4991033;28;20534;-68
2023/09/02 07:36:34;;;;;;;2.20;1.50;;;24.90;99.90;;;;;;4999094;28;20492;-68
2023/09/02 07:39:01;;;;;;;1.70;0.90;;;25.00;99.90;;;;;;4983638;28;20547;-68
2023/09/02 07:41:28;;;;;;;1.80;1.00;;;25.00;99.90;;;;;;4992617;28;20834;-68
2023/09/02 07:43:56;;;;;;;5.17;1.20;;;25.00;99.90;;;;;;4988357;28;20452;-68
2023/09/02 07:46:23;;;;;;;3.30;1.10;;;25.00;99.90;;;;;;4984874;28;20514;-68
2023/09/02 07:48:51;;;;;;;2.20;1.60;;;25.10;99.90;;;;;;4989834;28;20465;-69
2023/09/02 07:51:18;;;;;;;1.83;1.23;;;25.20;99.90;;;;;;4992329;28;20457;-68
2023/09/02 07:53:45;;;;;;;1.97;0.90;;;25.30;99.90;;;;;;4994148;28;20995;-68
2023/09/02 07:56:12;;;;;;;4.33;1.20;;;25.40;99.90;;;;;;4980510;28;20448;-68
2023/09/02 07:58:42;;;;;;;2.17;1.30;;;25.50;99.90;;;;;;4981166;28;20459;-68
2023/09/02 08:01:10;;;;;;;3.07;1.20;;;25.60;99.90;;;;;;4983058;28;20458;-68
2023/09/02 08:03:37;;;;;;;2.30;1.27;;;25.70;99.90;;;;;;4990225;28;20842;-68
2023/09/02 08:06:07;;;;;;;3.50;1.23;;;25.80;99.90;;;;;;4987097;28;20494;-68
2023/09/02 08:08:34;;;;;;;3.90;1.77;;;25.90;99.90;;;;;;4991415;28;20463;-68
2023/09/02 08:11:04;;;;;;;2.07;1.27;;;25.70;99.90;;;;;;4994845;28;20483;-68
2023/09/02 08:13:31;;;;;;;1.87;1.07;;;25.50;99.90;;;;;;4998297;28;20991;-68
2023/09/02 08:15:58;;;;;;;2.53;1.00;;;25.50;99.90;;;;;;4983586;28;20497;-68
2023/09/02 08:18:26;;;;;;;2.27;1.07;;;25.40;99.90;;;;;;4994460;28;20977;-68
2023/09/02 08:20:53;;;;;;;3.07;1.47;;;25.30;99.90;;;;;;4987031;28;20453;-68
2023/09/02 08:23:20;;;;;;;2.00;1.37;;;25.50;99.90;;;;;;5005825;28;20700;-67
2023/09/02 08:25:47;;;;;;;1.70;0.90;;;25.70;99.90;;;;;;4999247;28;20443;-68
2023/09/02 08:28:14;;;;;;;3.00;1.43;;;25.70;99.90;;;;;;4994355;28;21070;-68
2023/09/02 08:30:41;;;;;;;2.93;1.00;;;25.60;99.90;;;;;;4990464;28;20986;-68
2023/09/02 08:33:08;;;;;;;1.83;1.23;;;25.70;99.90;;;;;;4997335;28;20490;-68
2023/09/02 08:35:37;;;;;;;3.60;1.40;;;25.50;99.90;;;;;;4990465;28;20834;-68
2023/09/02 08:38:04;;;;;;;2.43;1.00;;;25.30;99.90;;;;;;4991272;28;20482;-68
2023/09/02 08:40:32;;;;;;;1.90;1.10;;;25.20;99.90;;;;;;4991236;28;20459;-68
2023/09/02 08:43:01;;;;;;;2.27;1.00;;;25.00;99.90;;;;;;4990324;28;20848;-68
2023/09/02 08:45:30;;;;;;;4.80;1.17;;;24.70;99.90;;;;;;4999582;28;20538;-68
2023/09/02 08:48:01;;;;;;;2.30;1.20;;;24.50;99.90;;;;;;4987101;28;20805;-69
2023/09/02 08:50:28;;;;;;;2.83;1.30;;;24.30;99.90;;;;;;4980829;28;21038;-68
2023/09/02 08:52:57;;;;;;;2.10;1.10;;;24.30;99.90;;;;;;5006350;28;20968;-69
2023/09/02 08:55:26;;;;;;;2.30;1.40;;;24.40;99.90;;;;;;4985991;28;20482;-68
2023/09/02 08:57:55;;;;;;;2.37;1.00;;;24.50;99.90;;;;;;5007487;28;20444;-68
2023/09/02 09:00:22;;;;;;;4.53;1.20;;;24.80;99.90;;;;;;4991697;28;20452;-68
2023/09/02 09:02:49;;;;;;;1.70;0.90;;;24.80;99.90;;;;;;4992310;28;20464;-68
2023/09/02 09:05:16;;;;;;;1.83;1.10;;;25.10;99.90;;;;;;4991406;28;20451;-68
2023/09/02 09:07:44;;;;;;;1.60;0.80;;;25.10;99.90;;;;;;4992781;28;21044;-69
2023/09/02 09:10:18;;;;;;;2.00;0.90;;;25.10;99.90;;;;;;4995276;28;20539;-68
2023/09/02 09:12:48;;;;;;;2.13;1.27;;;25.10;99.90;;;;;;4995355;28;20474;-67
2023/09/02 09:15:18;;;;;;;3.60;1.40;;;25.10;99.90;;;;;;4992827;28;20473;-67
2023/09/02 09:17:45;;;;;;;1.93;1.03;;;25.30;99.90;;;;;;4985297;28;20562;-67
2023/09/02 09:20:14;;;;;;;1.93;1.00;;;25.50;99.90;;;;;;4998333;28;20453;-69
2023/09/02 09:22:41;;;;;;;1.97;1.17;;;25.80;99.90;;;;;;4998825;28;21001;-69
2023/09/02 09:25:09;;;;;;;2.60;2.03;;;25.90;99.90;;;;;;4994249;28;20484;-69
2023/09/02 09:27:37;;;;;;;2.00;1.20;;;25.90;99.90;;;;;;4989795;28;20547;-69
2023/09/02 09:30:05;;;;;;;2.20;1.13;;;26.00;99.90;;;;;;4994988;28;20845;-69
2023/09/02 09:32:32;;;;;;;1.70;1.00;;;26.30;99.90;;;;;;4995448;28;20467;-69
2023/09/02 09:34:59;;;;;;;2.03;1.37;;;26.30;99.70;;;;;;4994770;28;20478;-68
2023/09/02 09:37:26;;;;;;;2.47;1.00;;;26.20;99.90;;;;;;5001243;28;20476;-69
2023/09/02 09:39:54;;;;;;;2.13;1.27;;;26.30;99.90;;;;;;4989966;28;20612;-68
2023/09/02 09:42:35;;;;;;;1.87;1.17;;;26.00;99.60;;;;;;4994952;28;20456;-68
2023/09/02 09:45:03;;;;;;;3.00;1.20;;;26.30;99.90;;;;;;4984588;28;20851;-68
2023/09/02 09:47:30;;;;;;;2.10;1.30;;;26.30;99.90;;;;;;4993160;28;20848;-68
2023/09/02 09:50:13;;;;;;;1.90;1.00;;;26.60;99.90;;;;;;5006395;28;20481;-68
2023/09/02 09:52:40;;;;;;;2.33;1.10;;;26.80;99.90;;;;;;4991357;28;20490;-69
2023/09/02 09:55:10;;;;;;;3.00;1.33;;;27.10;99.90;;;;;;4989734;28;20490;-68
2023/09/02 09:57:38;;;;;;;2.20;1.33;;;27.20;99.90;;;;;;4993613;28;20456;-68
2023/09/02 10:00:08;;;;;;;2.27;1.53;;;27.40;99.10;;;;;;4999064;28;20496;-68
2023/09/02 10:02:35;;;;;;;2.30;1.63;;;27.40;99.90;;;;;;4999057;28;20467;-68
2023/09/02 10:05:03;;;;;;;2.20;1.93;;;27.50;99.70;;;;;;4994350;28;20448;-68
2023/09/02 10:07:31;;;;;;;5.20;0.97;;;27.30;98.90;;;;;;4995961;28;20478;-69
2023/09/02 10:10:00;;;;;;;3.30;1.43;;;27.40;99.90;;;;;;4995495;28;20987;-69
2023/09/02 10:12:33;;;;;;;4.03;1.43;;;27.50;99.90;;;;;;4986253;28;20445;-69
2023/09/02 10:15:00;;;;;;;6.33;1.53;;;27.80;99.90;;;;;;4982264;28;20559;-69
2023/09/02 10:17:30;;;;;;;3.07;1.10;;;28.20;99.90;;;;;;4993917;28;20482;-69
2023/09/02 10:19:57;;;;;;;2.10;1.07;;;28.60;99.90;;;;;;4990111;28;21163;-68
2023/09/02 10:22:29;;;;;;;2.17;1.20;;;28.80;99.70;;;;;;4991480;28;20545;-68
2023/09/02 10:25:03;;;;;;;1.90;1.33;;;29.10;99.90;;;;;;4980186;28;20469;-68
2023/09/02 10:27:33;;;;;;;2.93;1.73;;;29.00;97.40;;;;;;4994525;28;20497;-68
2023/09/02 10:30:02;;;;;;;2.37;1.63;;;28.80;98.00;;;;;;4989194;28;20455;-68
2023/09/02 10:32:42;;;;;;;1.90;1.03;;;28.80;98.30;;;;;;4999508;28;20567;-68
2023/09/02 10:35:14;;;;;;;2.50;1.20;;;28.80;97.20;;;;;;4993543;28;20473;-68
2023/09/02 10:37:46;;;;;;;2.13;1.20;;;28.70;97.60;;;;;;5000627;28;20476;-69
2023/09/02 10:40:20;;;;;;;2.20;1.30;;;28.80;98.30;;;;;;4993382;28;20485;-68
2023/09/02 10:42:49;;;;;;;4.93;1.50;;;28.80;99.20;;;;;;5005729;28;20868;-68
2023/09/02 10:45:16;;;;;;;1.90;1.33;;;28.90;98.00;;;;;;4996188;28;20452;-69
2023/09/02 10:47:45;;;;;;;2.00;1.57;;;29.20;98.80;;;;;;4986718;28;20445;-68
2023/09/02 10:50:13;;;;;;;2.73;1.10;;;29.40;97.20;;;;;;4991561;28;20487;-67
2023/09/02 10:52:40;;;;;;;2.03;1.43;;;29.30;96.90;;;;;;4995209;28;20480;-68
2023/09/02 10:55:08;;;;;;;4.10;1.40;;;29.20;96.30;;;;;;4992093;28;20474;-67
2023/09/02 10:57:45;;;;;;;2.53;1.50;;;29.10;96.00;;;;;;4991413;28;20478;-69
2023/09/02 11:00:16;;;;;;;2.30;1.50;;;29.10;96.90;;;;;;4985185;28;20485;-67
2023/09/02 11:02:46;;;;;;;2.83;1.57;;;29.10;96.00;;;;;;4984993;28;20646;-66
2023/09/02 11:05:13;;;;;;;2.20;1.10;;;29.30;95.40;;;;;;4985542;28;20491;-67
2023/09/02 11:07:41;;;;;;;2.73;1.30;;;29.40;96.10;;;;;;4996923;28;20514;-67
2023/09/02 11:10:10;;;;;;;1.93;1.40;;;29.50;95.40;;;;;;4987299;28;20496;-67
2023/09/02 11:13:03;;;;;;;2.40;1.13;;;29.50;95.70;;;;;;4992133;28;20473;-67
2023/09/02 11:15:30;;;;;;;3.90;1.50;;;29.20;95.60;;;;;;4986292;28;20798;-67
2023/09/02 11:18:18;;;;;;;3.20;1.47;;;29.20;95.40;;;;;;4995161;28;20500;-67
2023/09/02 11:20:50;;;;;;;4.07;1.17;;;29.40;95.90;;;;;;5000808;28;20499;-67
2023/09/02 11:23:22;;;;;;;2.97;1.20;;;29.70;97.60;;;;;;4988895;28;20875;-67
2023/09/02 11:26:00;;;;;;;5.57;1.50;;;30.10;98.10;;;;;;4987830;28;20485;-68
2023/09/02 11:28:28;;;;;;;2.30;1.30;;;30.50;97.50;;;;;;4983120;28;20478;-67
2023/09/02 11:31:12;;;;;;;3.50;1.50;;;30.70;96.90;;;;;;4989616;28;20482;-67
2023/09/02 11:33:41;;;;;;;2.47;1.70;;;30.90;94.50;;;;;;4981574;28;20481;-67
2023/09/02 11:36:11;;;;;;;2.00;1.40;;;30.50;94.80;;;;;;4989544;28;20473;-67
2023/09/02 11:38:38;;;;;;;3.07;1.90;;;30.40;95.00;;;;;;4991777;28;20481;-67
2023/09/02 11:41:05;;;;;;;2.53;1.40;;;30.20;93.60;;;;;;4988700;28;20481;-67
2023/09/02 11:43:33;;;;;;;2.50;1.47;;;29.90;93.00;;;;;;4993528;28;20840;-67
2023/09/02 11:46:04;;;;;;;6.33;1.93;;;29.60;92.90;;;;;;4984870;28;20483;-67
2023/09/02 11:49:27;;;;;;;3.60;1.53;;;29.60;93.70;;;;;;4984223;28;20477;-67
2023/09/02 11:51:56;;;;;;;2.70;1.30;;;29.70;95.20;;;;;;4985703;28;20468;-67
2023/09/02 11:54:24;;;;;;;2.40;1.60;;;29.80;93.30;;;;;;4987626;28;21009;-67
2023/09/02 11:56:58;;;;;;;2.97;1.57;;;29.80;94.20;;;;;;5004321;28;20770;-68
2023/09/02 11:59:25;;;;;;;1.83;1.03;;;30.20;95.00;;;;;;4979271;28;20486;-67
2023/09/02 12:02:18;;;;;;;2.00;1.40;;;30.50;95.20;;;;;;4995289;28;20803;-67
2023/09/02 12:04:45;;;;;;;4.37;1.50;;;30.60;93.40;;;;;;4961683;28;20885;-68
2023/09/02 12:07:14;;;;;;;2.00;1.40;;;30.40;92.50;;;;;;4977194;28;20493;-66
2023/09/02 12:09:41;;;;;;;2.40;1.20;;;30.30;92.50;;;;;;4979398;28;20482;-67
2023/09/02 12:12:08;;;;;;;2.10;1.37;;;30.40;92.80;;;;;;4991742;28;20481;-68
2023/09/02 12:14:36;;;;;;;2.73;1.43;;;30.10;91.10;;;;;;4992281;28;20477;-68
2023/09/02 12:17:05;;;;;;;3.30;1.77;;;30.10;92.70;;;;;;4990153;28;20470;-68
2023/09/02 12:19:32;;;;;;;2.40;1.80;;;30.30;92.60;;;;;;4988702;28;20648;-68
2023/09/02 12:21:59;;;;;;;2.33;1.43;;;30.60;91.80;;;;;;4994340;28;20774;-68
2023/09/02 12:24:29;;;;;;;2.30;1.27;;;30.60;91.30;;;;;;4986871;28;20576;-68
2023/09/02 12:26:56;;;;;;;3.70;1.50;;;30.60;91.80;;;;;;4982260;28;20570;-68
2023/09/02 12:29:26;;;;;;;2.47;1.70;;;30.60;91.30;;;;;;4986600;28;20518;-68
2023/09/02 12:31:55;;;;;;;2.33;1.60;;;30.70;91.80;;;;;;4990897;28;20725;-68
2023/09/02 12:34:22;;;;;;;2.97;1.60;;;30.80;91.90;;;;;;4981615;28;20857;-69
2023/09/02 12:36:49;;;;;;;2.30;1.60;;;30.80;90.80;;;;;;4990483;28;20482;-68
2023/09/02 12:39:25;;;;;;;2.00;1.10;;;30.80;91.70;;;;;;4978132;28;21048;-68
2023/09/02 12:41:55;;;;;;;2.03;1.33;;;30.80;92.00;;;;;;4988321;28;20503;-69
2023/09/02 12:44:22;;;;;;;5.17;1.47;;;30.80;90.80;;;;;;4995584;28;20467;-69
2023/09/02 12:46:50;;;;;;;3.03;1.50;;;31.00;92.80;;;;;;4999449;28;20677;-69
2023/09/02 12:49:18;;;;;;;2.30;1.57;;;31.20;93.50;;;;;;4988334;28;20866;-69
2023/09/02 12:51:45;;;;;;;2.10;1.27;;;31.50;93.00;;;;;;4994096;28;20993;-69